createdAt,value
2023-01-05T00:01:36.536Z,82.11
2023-01-05T00:04:06.933Z,82.53
2023-01-05T00:06:35.735Z,83.11
2023-01-05T00:09:04.234Z,83.43
2023-01-05T00:11:49.554Z,83.60
2023-01-05T00:14:36.838Z,83.17
2023-01-05T00:17:23.088Z,83.50
2023-01-05T00:20:10.023Z,83.31
2023-01-05T00:22:44.962Z,82.75
2023-01-05T00:25:15.179Z,82.73
2023-01-05T00:27:44.716Z,83.00
2023-01-05T00:30:15.964Z,83.62
2023-01-05T00:32:44.411Z,83.79
2023-01-05T00:35:15.648Z,84.62
2023-01-05T00:37:44.354Z,84.04
2023-01-05T00:40:14.562Z,83.78
2023-01-05T00:42:42.674Z,83.73
2023-01-05T00:45:12.884Z,83.88
2023-01-05T00:47:41.021Z,83.64
2023-01-05T00:50:10.242Z,84.23
2023-01-05T00:52:39.562Z,84.45
2023-01-05T00:55:08.520Z,84.23
2023-01-05T00:57:37.244Z,84.23
2023-01-05T01:00:06.463Z,84.28
2023-01-05T01:02:38.180Z,84.83
2023-01-05T01:05:08.831Z,84.05
2023-01-05T01:07:36.736Z,83.79
2023-01-05T01:10:09.288Z,82.98
2023-01-05T01:12:37.224Z,82.19
2023-01-05T01:15:06.710Z,81.92
2023-01-05T01:17:35.172Z,82.30
2023-01-05T01:20:03.313Z,82.06
2023-01-05T01:22:33.454Z,81.77
2023-01-05T01:25:01.348Z,81.90
2023-01-05T01:27:32.499Z,81.53
2023-01-05T01:30:02.491Z,80.53
2023-01-05T01:32:30.709Z,80.49
2023-01-05T01:34:58.524Z,80.37
2023-01-05T01:37:26.430Z,80.20
2023-01-05T01:39:56.559Z,80.15
2023-01-05T01:42:24.836Z,79.46
2023-01-05T01:44:57.980Z,79.06
2023-01-05T01:47:33.579Z,78.08
2023-01-05T01:50:05.226Z,78.17
2023-01-05T01:52:34.270Z,77.90
2023-01-05T01:55:05.758Z,78.47
2023-01-05T01:57:34.777Z,78.61
2023-01-05T02:00:08.880Z,78.18
2023-01-05T02:02:49.138Z,78.14
2023-01-05T02:05:25.465Z,77.80
2023-01-05T02:07:53.298Z,78.50
2023-01-05T02:10:30.928Z,78.91
2023-01-05T02:13:11.465Z,78.27
2023-01-05T02:15:47.859Z,78.01
2023-01-05T02:18:34.382Z,77.93
2023-01-05T02:21:22.595Z,77.60
2023-01-05T02:24:35.189Z,77.69
2023-01-05T02:27:37.028Z,77.48
2023-01-05T02:30:27.564Z,76.97
2023-01-05T02:33:03.057Z,77.72
2023-01-05T02:35:39.586Z,79.00
2023-01-05T02:38:15.602Z,78.89
2023-01-05T02:40:48.629Z,79.29
2023-01-05T02:43:20.545Z,79.08
2023-01-05T02:45:48.868Z,78.86
2023-01-05T02:48:18.884Z,78.50
2023-01-05T02:50:51.717Z,77.76
2023-01-05T02:53:23.455Z,77.57
2023-01-05T02:55:57.618Z,77.45
2023-01-05T02:58:35.415Z,77.55
2023-01-05T03:01:07.177Z,78.32
2023-01-05T03:03:42.152Z,77.74
2023-01-05T03:06:18.160Z,77.76
2023-01-05T03:08:52.402Z,78.15
2023-01-05T03:11:39.755Z,78.15
2023-01-05T03:14:14.076Z,77.65
2023-01-05T03:16:45.107Z,77.56
2023-01-05T03:19:35.929Z,78.00
2023-01-05T03:22:24.347Z,78.17
2023-01-05T03:25:10.830Z,77.55
2023-01-05T03:28:00.306Z,77.61
2023-01-05T03:30:53.457Z,76.80
2023-01-05T03:33:48.624Z,76.67
2023-01-05T03:36:22.604Z,77.10
2023-01-05T03:38:54.873Z,76.14
2023-01-05T03:41:26.991Z,76.40
2023-01-05T03:43:58.303Z,76.87
2023-01-05T03:46:26.302Z,77.11
2023-01-05T03:48:54.893Z,77.19
2023-01-05T03:51:24.713Z,77.55
2023-01-05T03:53:52.576Z,78.06
2023-01-05T03:56:20.846Z,78.83
2023-01-05T03:58:48.724Z,78.03
2023-01-05T04:01:17.037Z,78.57
2023-01-05T04:03:45.216Z,78.62
2023-01-05T04:06:13.451Z,78.59
2023-01-05T04:08:42.727Z,78.83
2023-01-05T04:11:13.312Z,78.93
2023-01-05T04:13:41.391Z,78.95
2023-01-05T04:16:09.702Z,78.21
2023-01-05T04:18:41.799Z,79.16
2023-01-05T04:21:11.116Z,79.49
2023-01-05T04:23:40.356Z,79.62
2023-01-05T04:26:10.648Z,79.46
2023-01-05T04:28:39.640Z,78.77
2023-01-05T04:31:10.230Z,78.16
2023-01-05T04:33:39.537Z,77.34
2023-01-05T04:36:09.315Z,76.95
2023-01-05T04:38:38.455Z,76.07
2023-01-05T04:41:07.459Z,76.03
2023-01-05T04:43:37.694Z,76.45
2023-01-05T04:46:06.043Z,76.25
2023-01-05T04:48:34.859Z,76.49
2023-01-05T04:51:05.197Z,76.09
2023-01-05T04:53:36.435Z,76.45
2023-01-05T04:56:06.788Z,76.79
2023-01-05T04:58:41.789Z,76.72
2023-01-05T05:01:10.115Z,76.22
2023-01-05T05:03:39.929Z,76.67
2023-01-05T05:06:11.314Z,76.31
2023-01-05T05:08:39.241Z,76.20
2023-01-05T05:11:07.983Z,76.27
2023-01-05T05:13:38.960Z,76.22
2023-01-05T05:16:09.334Z,75.91
2023-01-05T05:18:37.442Z,75.44
2023-01-05T05:21:06.968Z,75.66
2023-01-05T05:23:37.459Z,76.06
2023-01-05T05:26:06.399Z,75.64
2023-01-05T05:28:35.389Z,75.87
2023-01-05T05:31:03.741Z,76.74
2023-01-05T05:33:33.180Z,76.25
2023-01-05T05:36:01.073Z,76.46
2023-01-05T05:38:29.158Z,77.09
2023-01-05T05:40:57.033Z,77.26
2023-01-05T05:43:24.919Z,77.19
2023-01-05T05:45:52.944Z,76.93
2023-01-05T05:48:21.080Z,77.75
2023-01-05T05:50:50.619Z,77.85
2023-01-05T05:53:18.533Z,78.48
2023-01-05T05:55:49.680Z,78.02
2023-01-05T05:58:17.860Z,77.74
2023-01-05T06:00:45.933Z,77.34
2023-01-05T06:03:14.340Z,77.52
2023-01-05T06:05:42.678Z,76.71
2023-01-05T06:08:12.543Z,75.97
2023-01-05T06:10:40.543Z,76.37
2023-01-05T06:13:08.780Z,76.16
2023-01-05T06:15:36.689Z,76.25
2023-01-05T06:18:05.038Z,76.26
2023-01-05T06:20:33.467Z,77.16
2023-01-05T06:23:01.277Z,76.89
2023-01-05T06:25:30.638Z,78.02
2023-01-05T06:27:58.538Z,78.08
2023-01-05T06:30:27.000Z,77.79
2023-01-05T06:32:54.998Z,78.38
2023-01-05T06:35:23.190Z,79.22
2023-01-05T06:37:51.406Z,79.53
2023-01-05T06:40:19.645Z,79.88
2023-01-05T06:42:48.899Z,80.06
2023-01-05T06:45:17.691Z,79.33
2023-01-05T06:47:45.873Z,79.10
2023-01-05T06:50:14.015Z,79.44
2023-01-05T06:52:42.124Z,79.52
2023-01-05T06:55:12.300Z,79.15
2023-01-05T06:57:40.380Z,78.94
2023-01-05T07:00:12.911Z,79.43
2023-01-05T07:02:40.979Z,79.44
2023-01-05T07:05:10.265Z,79.33
2023-01-05T07:07:38.914Z,79.14
2023-01-05T07:10:08.181Z,78.90
2023-01-05T07:12:36.444Z,79.36
2023-01-05T07:15:06.221Z,79.54
2023-01-05T07:17:36.711Z,78.97
2023-01-05T07:20:05.576Z,78.99
2023-01-05T07:22:33.743Z,78.46
2023-01-05T07:25:01.685Z,79.44
2023-01-05T07:27:29.695Z,79.55
2023-01-05T07:29:57.630Z,78.46
2023-01-05T07:32:25.814Z,78.65
2023-01-05T07:34:56.100Z,77.89
2023-01-05T07:37:25.576Z,77.95
2023-01-05T07:39:53.561Z,76.88
2023-01-05T07:42:21.513Z,76.60
2023-01-05T07:44:51.861Z,77.12
2023-01-05T07:47:20.004Z,76.83
2023-01-05T07:49:48.157Z,76.29
2023-01-05T07:52:17.936Z,76.35
2023-01-05T07:54:46.285Z,77.26
2023-01-05T07:57:14.759Z,77.64
2023-01-05T07:59:42.740Z,77.25
2023-01-05T08:02:11.526Z,77.16
2023-01-05T08:04:39.898Z,77.43
2023-01-05T08:07:11.579Z,77.77
2023-01-05T08:09:58.473Z,78.01
2023-01-05T08:12:26.585Z,77.62
2023-01-05T08:14:54.412Z,77.95
2023-01-05T08:17:22.396Z,77.66
2023-01-05T08:19:50.359Z,77.19
2023-01-05T08:22:18.255Z,77.31
2023-01-05T08:24:47.518Z,76.88
2023-01-05T08:27:15.452Z,77.11
2023-01-05T08:29:43.367Z,77.32
2023-01-05T08:32:11.253Z,77.33
2023-01-05T08:34:39.503Z,77.13
2023-01-05T08:37:07.476Z,77.17
2023-01-05T08:39:36.471Z,76.73
2023-01-05T08:42:05.973Z,75.72
2023-01-05T08:44:34.019Z,75.66
2023-01-05T08:47:01.883Z,75.71
2023-01-05T08:49:29.979Z,75.74
2023-01-05T08:51:57.889Z,76.03
2023-01-05T08:54:26.213Z,75.75
2023-01-05T08:56:54.241Z,75.95
2023-01-05T08:59:23.522Z,76.54
2023-01-05T09:01:51.644Z,76.71
2023-01-05T09:04:19.980Z,76.79
2023-01-05T09:06:48.019Z,76.79
2023-01-05T09:09:15.892Z,76.77
2023-01-05T09:11:44.348Z,76.61
2023-01-05T09:14:15.514Z,77.34
2023-01-05T09:19:33.150Z,77.13
2023-01-05T09:22:01.232Z,76.89
2023-01-05T09:24:29.207Z,76.78
2023-01-05T09:26:57.762Z,76.68
2023-01-05T09:29:25.726Z,76.95
2023-01-05T09:31:55.208Z,76.04
2023-01-05T09:34:23.763Z,76.06
2023-01-05T09:36:51.749Z,76.31
2023-01-05T09:39:19.795Z,76.31
2023-01-05T09:41:50.616Z,76.39
2023-01-05T09:44:29.520Z,76.35
2023-01-05T09:47:03.674Z,76.59
2023-01-05T09:49:33.495Z,75.96
2023-01-05T09:52:03.460Z,76.35
2023-01-05T09:54:34.850Z,75.82
2023-01-05T09:57:09.907Z,75.78
2023-01-05T09:59:42.213Z,76.02
2023-01-05T10:02:19.895Z,76.08
2023-01-05T10:04:48.864Z,75.79
2023-01-05T10:07:26.761Z,75.67
2023-01-05T10:09:58.402Z,75.46
2023-01-05T10:12:49.951Z,75.40
2023-01-05T10:15:21.692Z,74.60
2023-01-05T10:17:51.280Z,75.34
2023-01-05T10:20:26.741Z,75.65
2023-01-05T10:23:06.562Z,76.25
2023-01-05T10:25:42.601Z,76.00
2023-01-05T10:28:27.898Z,76.05
2023-01-05T10:30:59.877Z,76.04
2023-01-05T10:33:51.991Z,75.61
2023-01-05T10:37:07.763Z,75.32
2023-01-05T10:40:03.366Z,76.24
2023-01-05T10:42:42.091Z,77.12
2023-01-05T10:45:12.806Z,76.39
2023-01-05T10:47:41.901Z,75.94
2023-01-05T10:50:35.080Z,76.36
2023-01-05T10:53:10.449Z,74.98
2023-01-05T10:55:46.496Z,74.72
2023-01-05T10:58:25.525Z,74.10
2023-01-05T11:00:58.098Z,73.18
2023-01-05T11:04:14.819Z,73.04
2023-01-05T11:06:28.268Z,72.52
2023-01-05T11:08:56.965Z,72.51
2023-01-05T11:11:26.805Z,72.84
2023-01-05T11:13:57.238Z,72.71
2023-01-05T11:16:28.912Z,72.41
2023-01-05T11:18:59.904Z,72.09
2023-01-05T11:21:43.456Z,71.87
2023-01-05T11:24:28.878Z,72.83
2023-01-05T11:26:59.629Z,72.23
2023-01-05T11:29:27.660Z,73.30
2023-01-05T11:31:59.832Z,74.03
2023-01-05T11:34:38.084Z,75.17
2023-01-05T11:37:14.756Z,75.28
2023-01-05T11:39:50.026Z,74.98
2023-01-05T11:42:25.334Z,75.25
2023-01-05T11:44:56.081Z,75.03
2023-01-05T11:47:29.545Z,74.83
2023-01-05T11:50:08.478Z,75.48
2023-01-05T11:52:40.374Z,76.34
2023-01-05T11:55:31.070Z,76.45
2023-01-05T11:58:13.651Z,76.29
2023-01-05T12:01:04.914Z,76.12
2023-01-05T12:03:55.411Z,76.06
2023-01-05T12:06:38.176Z,75.71
2023-01-05T12:09:17.263Z,75.14
2023-01-05T12:11:51.156Z,75.08
2023-01-05T12:14:33.927Z,74.50
2023-01-05T12:17:07.937Z,73.97
2023-01-05T12:20:04.175Z,73.63
2023-01-05T12:23:13.947Z,73.18
2023-01-05T12:25:56.149Z,73.09
2023-01-05T12:29:34.385Z,72.33
2023-01-05T12:34:00.352Z,71.75
2023-01-05T12:35:18.156Z,71.79
2023-01-05T12:38:02.122Z,71.70
2023-01-05T12:40:45.587Z,71.26
2023-01-05T12:43:24.164Z,70.96
2023-01-05T12:46:14.588Z,71.42
2023-01-05T12:48:48.219Z,71.62
2023-01-05T12:51:19.586Z,71.50
2023-01-05T12:53:56.587Z,72.36
2023-01-05T12:56:29.533Z,71.71
2023-01-05T12:59:12.424Z,72.03
2023-01-05T13:01:46.714Z,71.88
2023-01-05T13:04:38.882Z,71.82
2023-01-05T13:07:16.509Z,71.79
2023-01-05T13:09:46.830Z,72.51
2023-01-05T13:12:15.156Z,72.51
2023-01-05T13:14:52.714Z,72.35
2023-01-05T13:17:26.605Z,72.30
2023-01-05T13:20:04.070Z,72.61
2023-01-05T13:22:37.099Z,72.15
2023-01-05T13:25:17.491Z,72.24
2023-01-05T13:27:45.459Z,71.63
2023-01-05T13:30:23.856Z,71.81
2023-01-05T13:33:15.998Z,71.67
2023-01-05T13:35:57.449Z,71.49
2023-01-05T13:38:55.333Z,71.85
2023-01-05T13:41:40.748Z,71.69
2023-01-05T13:44:35.005Z,71.77
2023-01-05T13:47:45.173Z,72.13
2023-01-05T13:50:37.146Z,71.89
2023-01-05T13:53:10.442Z,71.73
2023-01-05T13:55:46.516Z,71.59
2023-01-05T13:58:41.700Z,71.79
2023-01-05T14:01:14.300Z,71.78
2023-01-05T14:03:50.576Z,72.35
2023-01-05T14:06:23.303Z,72.15
2023-01-05T14:08:57.216Z,71.92
2023-01-05T14:11:27.701Z,72.11
2023-01-05T14:13:58.386Z,72.26
2023-01-05T14:16:55.626Z,72.35
2023-01-05T14:19:52.484Z,72.72
2023-01-05T14:22:37.022Z,72.53
2023-01-05T14:25:59.420Z,72.82
2023-01-05T14:28:46.133Z,72.72
2023-01-05T14:31:52.982Z,72.54
2023-01-05T14:34:23.203Z,72.07
2023-01-05T14:37:04.341Z,72.36
2023-01-05T14:39:39.848Z,72.53
2023-01-05T14:42:17.389Z,72.61
2023-01-05T14:44:50.758Z,71.98
2023-01-05T14:47:33.351Z,72.45
2023-01-05T14:50:03.951Z,72.32
2023-01-05T14:52:55.763Z,72.55
2023-01-05T14:55:38.465Z,72.11
2023-01-05T14:58:12.134Z,72.22
2023-01-05T15:00:49.601Z,72.65
2023-01-05T15:03:35.644Z,72.34
2023-01-05T15:06:10.166Z,72.28
2023-01-05T15:09:05.352Z,72.43
2023-01-05T15:12:00.012Z,73.04
2023-01-05T15:14:41.015Z,72.16
2023-01-05T15:17:42.197Z,72.20
2023-01-05T15:20:39.868Z,72.54
2023-01-05T15:23:24.678Z,72.88
2023-01-05T15:26:21.461Z,72.84
2023-01-05T15:29:11.019Z,72.87
2023-01-05T15:31:44.665Z,72.47
2023-01-05T15:34:22.218Z,72.16
2023-01-05T15:36:55.928Z,72.22
2023-01-05T15:39:30.331Z,72.03
2023-01-05T15:42:06.894Z,72.15
2023-01-05T15:44:39.195Z,72.11
2023-01-05T15:47:10.819Z,72.09
2023-01-05T15:49:39.972Z,72.27
2023-01-05T15:52:20.297Z,72.62
2023-01-05T15:54:59.415Z,72.63
2023-01-05T15:57:29.696Z,72.84
2023-01-05T15:59:58.119Z,72.97
2023-01-05T16:02:27.916Z,72.83
2023-01-05T16:05:12.639Z,73.27
2023-01-05T16:07:45.917Z,73.36
2023-01-05T16:10:19.909Z,73.26
2023-01-05T16:12:52.846Z,73.16
2023-01-05T16:15:24.163Z,73.97
2023-01-05T16:17:56.552Z,73.78
2023-01-05T16:20:27.186Z,73.97
2023-01-05T16:23:04.671Z,73.88
2023-01-05T16:25:41.009Z,73.85
2023-01-05T16:28:17.417Z,73.60
2023-01-05T16:30:47.418Z,73.70
2023-01-05T16:33:34.727Z,73.52
2023-01-05T16:36:13.329Z,73.25
2023-01-05T16:38:42.580Z,73.13
2023-01-05T16:41:13.940Z,73.53
2023-01-05T16:43:46.805Z,73.61
2023-01-05T16:46:36.045Z,73.63
2023-01-05T16:49:33.654Z,73.31
2023-01-05T16:52:02.815Z,73.43
2023-01-05T16:54:39.258Z,73.66
2023-01-05T16:57:35.837Z,73.91
2023-01-05T17:00:27.770Z,73.93
2023-01-05T17:02:57.027Z,74.40
2023-01-05T17:05:27.698Z,74.71
2023-01-05T17:08:00.563Z,74.52
2023-01-05T17:10:29.231Z,74.61
2023-01-05T17:13:02.447Z,74.94
2023-01-05T17:15:34.969Z,74.51
2023-01-05T17:18:24.914Z,74.25
2023-01-05T17:20:55.767Z,74.38
2023-01-05T17:23:26.588Z,74.26
2023-01-05T17:25:56.658Z,73.89
2023-01-05T17:28:24.972Z,74.15
2023-01-05T17:30:54.943Z,74.19
2023-01-05T17:33:23.319Z,74.07
2023-01-05T17:35:52.255Z,74.26
2023-01-05T17:38:20.420Z,74.24
2023-01-05T17:40:49.055Z,74.18
2023-01-05T17:43:18.492Z,74.46
2023-01-05T17:45:46.904Z,74.51
2023-01-05T17:48:16.883Z,74.20
2023-01-05T17:50:45.740Z,75.07
2023-01-05T17:53:13.867Z,74.46
2023-01-05T17:55:43.238Z,74.69
2023-01-05T17:58:14.219Z,74.96
2023-01-05T18:03:22.475Z,75.14
2023-01-05T18:05:53.405Z,74.98
2023-01-05T18:08:22.632Z,74.62
2023-01-05T18:10:50.996Z,74.42
2023-01-05T18:13:21.518Z,74.41
2023-01-05T18:15:53.038Z,74.26
2023-01-05T18:18:23.168Z,74.77
2023-01-05T18:20:51.927Z,74.29
2023-01-05T18:23:20.931Z,74.34
2023-01-05T18:25:49.117Z,74.98
2023-01-05T18:28:18.104Z,75.51
2023-01-05T18:30:46.586Z,75.40
2023-01-05T18:33:14.739Z,76.08
2023-01-05T18:35:44.687Z,76.06
2023-01-05T18:38:12.799Z,76.48
2023-01-05T18:40:41.404Z,76.21
2023-01-05T18:43:09.602Z,76.38
2023-01-05T18:45:39.500Z,76.21
2023-01-05T18:48:08.984Z,76.62
2023-01-05T18:50:41.237Z,76.53
2023-01-05T18:53:10.706Z,76.77
2023-01-05T18:55:41.828Z,77.60
2023-01-05T18:58:10.236Z,78.01
2023-01-05T19:00:40.436Z,78.23
2023-01-05T19:03:09.976Z,78.68
2023-01-05T19:05:41.202Z,79.10
2023-01-05T19:08:12.295Z,78.82
2023-01-05T19:10:40.845Z,78.57
2023-01-05T19:13:09.504Z,78.90
2023-01-05T19:15:39.260Z,78.79
2023-01-05T19:18:07.516Z,78.74
2023-01-05T19:20:36.020Z,78.69
2023-01-05T19:23:04.549Z,78.88
2023-01-05T19:25:34.565Z,79.43
2023-01-05T19:28:02.948Z,79.00
2023-01-05T19:30:31.673Z,79.15
2023-01-05T19:33:01.080Z,78.85
2023-01-05T19:35:31.283Z,79.29
2023-01-05T19:38:00.614Z,80.31
2023-01-05T19:40:28.882Z,80.52
2023-01-05T19:42:58.297Z,81.40
2023-01-05T19:45:26.375Z,81.85
2023-01-05T19:47:54.717Z,82.00
2023-01-05T19:50:24.748Z,81.80
2023-01-05T19:52:53.656Z,82.25
2023-01-05T19:55:21.607Z,81.84
2023-01-05T19:57:49.578Z,81.45
2023-01-05T20:00:20.292Z,81.88
2023-01-05T20:02:48.713Z,81.89
2023-01-05T20:05:17.479Z,81.77
2023-01-05T20:07:45.415Z,81.58
2023-01-05T20:10:14.628Z,81.56
2023-01-05T20:12:43.002Z,81.61
2023-01-05T20:15:13.151Z,82.02
2023-01-05T20:17:45.402Z,82.47
2023-01-05T20:20:14.201Z,83.15
2023-01-05T20:22:42.280Z,83.66
2023-01-05T20:25:10.937Z,83.36
2023-01-05T20:27:39.765Z,83.28
2023-01-05T20:30:08.937Z,83.43
2023-01-05T20:32:36.987Z,83.12
2023-01-05T20:35:07.840Z,83.41
2023-01-05T20:37:35.917Z,83.33
2023-01-05T20:40:05.779Z,83.41
2023-01-05T20:42:34.724Z,83.14
2023-01-05T20:45:04.212Z,83.26
2023-01-05T20:47:43.297Z,83.18
2023-01-05T20:50:16.764Z,83.04
2023-01-05T20:52:44.644Z,82.93
2023-01-05T20:55:12.782Z,83.17
2023-01-05T20:57:41.204Z,82.72
2023-01-05T21:00:10.988Z,83.11
2023-01-05T21:02:39.350Z,82.85
2023-01-05T21:05:09.733Z,82.88
2023-01-05T21:07:39.100Z,83.38
2023-01-05T21:10:08.394Z,83.85
2023-01-05T21:12:36.310Z,83.41
2023-01-05T21:15:04.794Z,83.40
2023-01-05T21:17:34.009Z,83.31
2023-01-05T21:20:03.076Z,84.10
2023-01-05T21:22:31.194Z,84.81
2023-01-05T21:25:00.652Z,85.09
2023-01-05T21:27:28.503Z,84.75
2023-01-05T21:29:56.367Z,84.18
2023-01-05T21:32:24.543Z,84.07
2023-01-05T21:34:52.693Z,83.83
2023-01-05T21:37:20.782Z,83.51
2023-01-05T21:39:48.710Z,84.01
2023-01-05T21:42:35.433Z,83.80
2023-01-05T21:45:03.874Z,83.81
2023-01-05T21:47:31.816Z,83.75
2023-01-05T21:49:59.755Z,83.24
2023-01-05T21:52:44.511Z,83.23
2023-01-05T21:55:30.134Z,83.99
2023-01-05T21:57:59.840Z,83.88
2023-01-05T22:00:28.161Z,84.36
2023-01-05T22:02:56.303Z,83.96
2023-01-05T22:05:24.452Z,83.98
2023-01-05T22:07:52.446Z,83.72
2023-01-05T22:10:20.403Z,83.83
2023-01-05T22:12:49.792Z,83.76
2023-01-05T22:15:19.548Z,84.25
2023-01-05T22:17:47.615Z,83.69
2023-01-05T22:20:16.183Z,83.39
2023-01-05T22:22:44.015Z,83.58
2023-01-05T22:25:11.990Z,84.10
2023-01-05T22:27:40.112Z,83.96
2023-01-05T22:30:09.784Z,84.18
2023-01-05T22:32:39.627Z,84.17
2023-01-05T22:35:08.619Z,84.77
2023-01-05T22:37:36.601Z,84.96
2023-01-05T22:40:05.570Z,84.15
2023-01-05T22:42:33.576Z,84.60
2023-01-05T22:45:01.555Z,84.84
2023-01-05T22:47:29.642Z,84.20
2023-01-05T22:49:59.017Z,84.21
2023-01-05T22:52:26.969Z,84.87
2023-01-05T22:54:54.851Z,85.09
2023-01-05T22:57:22.769Z,84.37
2023-01-05T22:59:50.681Z,84.01
2023-01-05T23:02:18.598Z,84.57
2023-01-05T23:04:46.492Z,84.26
2023-01-05T23:07:20.575Z,83.84
2023-01-05T23:09:48.554Z,83.94
2023-01-05T23:12:16.538Z,83.95
2023-01-05T23:14:44.384Z,83.77
2023-01-05T23:17:12.418Z,83.72
2023-01-05T23:19:40.534Z,83.97
2023-01-05T23:22:10.792Z,84.13
2023-01-05T23:24:40.784Z,84.69
2023-01-05T23:27:08.734Z,84.77
2023-01-05T23:29:36.805Z,85.24
2023-01-05T23:32:05.798Z,84.79
2023-01-05T23:34:33.643Z,84.37
2023-01-05T23:37:01.499Z,84.20
2023-01-05T23:39:29.585Z,84.32
2023-01-05T23:41:58.887Z,84.43
2023-01-05T23:44:26.707Z,84.61
2023-01-05T23:46:54.696Z,84.31
2023-01-05T23:49:22.559Z,84.32
2023-01-05T23:51:50.448Z,84.35
2023-01-05T23:54:18.417Z,84.21
2023-01-05T23:56:46.389Z,84.03
2023-01-05T23:59:15.671Z,84.19
